Time;durP1;ratioP1;P1;durP2;ratioP2;P2;SDS_P1;SDS_P2;PMS_P1;PMS_P2;Temp;Humidity;BMP_temperature;BMP_pressure;BME280_temperature;BME280_humidity;BME280_pressure;Samples;Min_cycle;Max_cycle;Signal;HPM_P1;HPM_P2
2023/08/22 10:42:40;;;;;;;0.98;0.98;;;23.40;98.70;;;;;;5095732;27;1299316;-74
2023/08/22 10:45:17;;;;;;;1.55;1.00;;;23.40;99.50;;;;;;5103488;28;20495;-75
2023/08/22 10:47:48;;;;;;;0.95;0.95;;;23.60;99.60;;;;;;5106768;28;20199;-75
2023/08/22 10:50:16;;;;;;;1.65;1.10;;;23.80;99.60;;;;;;5127328;28;20191;-75
2023/08/22 10:52:44;;;;;;;1.10;1.00;;;24.00;98.60;;;;;;5118937;28;20222;-75
2023/08/22 10:55:13;;;;;;;1.65;1.10;;;24.10;98.30;;;;;;5107534;28;20248;-75
2023/08/22 10:57:45;;;;;;;0.90;0.90;;;24.30;98.70;;;;;;5121128;28;20219;-76
2023/08/22 11:00:23;;;;;;;1.00;1.00;;;24.50;98.00;;;;;;5119952;28;20214;-75
2023/08/22 11:02:51;;;;;;;0.90;0.90;;;24.70;97.00;;;;;;5104456;27;20666;-75
2023/08/22 11:05:19;;;;;;;0.90;0.90;;;24.80;97.00;;;;;;5129579;27;20199;-75
2023/08/22 11:07:48;;;;;;;0.85;0.85;;;25.00;97.20;;;;;;5099647;28;20203;-74
2023/08/22 11:10:18;;;;;;;1.02;0.80;;;25.10;97.00;;;;;;5102155;28;20275;-74
2023/08/22 11:12:47;;;;;;;2.47;0.85;;;25.30;96.80;;;;;;5096964;28;20290;-75
2023/08/22 11:15:14;;;;;;;0.95;0.95;;;25.30;96.90;;;;;;5112633;27;20187;-74
2023/08/22 11:17:43;;;;;;;0.93;0.93;;;25.40;96.50;;;;;;5112827;28;20227;-69
2023/08/22 11:20:11;;;;;;;0.95;0.88;;;25.50;96.30;;;;;;5121120;28;20183;-69
2023/08/22 11:22:39;;;;;;;1.40;1.30;;;25.50;96.10;;;;;;5120182;28;20226;-68
2023/08/22 11:25:07;;;;;;;0.73;0.73;;;25.50;95.80;;;;;;5122244;28;20193;-69
2023/08/22 11:27:38;;;;;;;1.00;0.90;;;25.60;95.80;;;;;;5122892;28;20225;-68
2023/08/22 11:30:08;;;;;;;0.77;0.77;;;25.60;95.70;;;;;;5113150;28;20273;-68
2023/08/22 11:32:40;;;;;;;1.08;1.02;;;25.60;94.90;;;;;;5127323;28;20184;-68
2023/08/22 11:35:08;;;;;;;2.08;1.00;;;25.60;94.90;;;;;;5093231;27;20245;-68
2023/08/22 11:37:39;;;;;;;4.20;1.50;;;25.60;94.40;;;;;;5128784;27;20187;-68
2023/08/22 11:40:08;;;;;;;1.20;1.13;;;25.60;93.80;;;;;;5105901;28;20199;-67
2023/08/22 11:42:37;;;;;;;1.55;1.45;;;25.70;93.60;;;;;;5117277;27;20641;-67
2023/08/22 11:45:10;;;;;;;0.90;0.90;;;25.70;93.80;;;;;;5126852;28;20191;-67
2023/08/22 11:47:38;;;;;;;0.98;0.98;;;25.80;93.30;;;;;;5118454;28;20286;-68
2023/08/22 11:50:12;;;;;;;1.50;1.30;;;25.90;93.10;;;;;;5122053;27;20191;-68
2023/08/22 11:52:44;;;;;;;0.90;0.90;;;26.00;93.20;;;;;;5087569;28;20559;-69
2023/08/22 11:55:13;;;;;;;0.98;0.98;;;26.00;93.00;;;;;;5097332;27;20314;-68
2023/08/22 11:57:41;;;;;;;1.85;1.13;;;26.10;92.40;;;;;;5114926;27;20237;-69
2023/08/22 12:00:12;;;;;;;1.50;1.40;;;26.00;92.00;;;;;;5109842;28;20204;-69
2023/08/22 12:02:43;;;;;;;1.23;1.13;;;26.00;91.20;;;;;;5108277;27;20189;-69
2023/08/22 12:05:38;;;;;;;1.60;1.30;;;26.00;90.60;;;;;;5114094;27;20279;-68
2023/08/22 12:08:26;;;;;;;3.25;1.20;;;25.90;90.00;;;;;;5103351;28;20244;-68
2023/08/22 12:10:54;;;;;;;1.13;1.08;;;25.90;89.90;;;;;;5097400;27;20262;-68
2023/08/22 12:13:23;;;;;;;1.27;1.27;;;25.90;89.20;;;;;;5082034;28;20195;-68
2023/08/22 12:15:52;;;;;;;0.90;0.90;;;26.00;90.00;;;;;;5103562;28;20203;-68
2023/08/22 12:18:19;;;;;;;1.02;1.02;;;26.00;89.60;;;;;;5118484;27;20224;-68
2023/08/22 12:20:48;;;;;;;1.73;1.35;;;26.10;89.80;;;;;;5105999;28;20439;-68
2023/08/22 12:23:15;;;;;;;0.82;0.82;;;26.10;88.30;;;;;;5081939;27;20294;-68
2023/08/22 12:25:44;;;;;;;1.30;1.20;;;26.20;88.70;;;;;;5112274;27;20543;-68
2023/08/22 12:28:14;;;;;;;1.40;1.30;;;26.30;88.20;;;;;;5100358;28;20372;-67
2023/08/22 12:30:41;;;;;;;1.90;1.20;;;26.30;86.50;;;;;;5110730;27;20199;-68
2023/08/22 12:33:10;;;;;;;1.92;1.35;;;26.30;86.00;;;;;;5108009;28;20648;-68
2023/08/22 12:35:39;;;;;;;1.58;1.00;;;26.30;84.70;;;;;;5112089;28;20281;-67
2023/08/22 12:38:08;;;;;;;0.95;0.95;;;26.30;84.50;;;;;;5109299;27;20761;-68
2023/08/22 12:40:36;;;;;;;2.63;1.10;;;26.30;84.00;;;;;;5116462;27;20213;-68
2023/08/22 12:43:03;;;;;;;2.88;1.00;;;26.30;84.00;;;;;;5102875;28;20250;-68
2023/08/22 12:45:31;;;;;;;0.90;0.80;;;26.40;83.40;;;;;;5095749;28;20200;-68
2023/08/22 12:47:58;;;;;;;0.90;0.90;;;26.40;83.60;;;;;;5091302;28;20204;-68
2023/08/22 12:50:26;;;;;;;1.65;1.10;;;26.40;83.50;;;;;;5103289;28;20223;-68
2023/08/22 12:52:53;;;;;;;1.00;0.93;;;26.40;82.70;;;;;;5104298;27;20212;-68
2023/08/22 12:55:21;;;;;;;0.95;0.95;;;26.30;82.50;;;;;;5089794;28;20197;-67
2023/08/22 12:57:48;;;;;;;1.30;1.20;;;26.40;82.20;;;;;;5091176;27;20196;-67
2023/08/22 13:00:16;;;;;;;1.05;1.00;;;26.40;82.30;;;;;;5104147;27;20271;-68
2023/08/22 13:02:44;;;;;;;1.05;1.05;;;26.40;81.80;;;;;;5099093;28;20270;-68
2023/08/22 13:05:13;;;;;;;1.65;1.30;;;26.40;82.10;;;;;;5103470;27;20283;-68
2023/08/22 13:07:43;;;;;;;1.88;0.98;;;26.50;82.10;;;;;;5115553;27;20279;-68
2023/08/22 13:10:10;;;;;;;1.02;1.02;;;26.40;83.00;;;;;;5087983;28;20210;-67
2023/08/22 13:12:40;;;;;;;0.80;0.80;;;26.40;82.60;;;;;;5105676;27;20216;-67
2023/08/22 13:15:08;;;;;;;0.70;0.70;;;26.30;82.60;;;;;;5109131;27;20659;-68
2023/08/22 13:17:35;;;;;;;1.42;1.20;;;26.40;81.80;;;;;;5106066;28;20195;-68
2023/08/22 13:20:03;;;;;;;0.90;0.90;;;26.30;80.40;;;;;;5097876;27;20242;-68
2023/08/22 13:22:30;;;;;;;0.95;0.93;;;26.40;80.70;;;;;;5100094;28;20207;-68
2023/08/22 13:24:59;;;;;;;0.90;0.90;;;26.40;80.70;;;;;;5109736;28;20540;-67
2023/08/22 13:27:26;;;;;;;0.90;0.90;;;26.40;80.90;;;;;;5114454;27;20546;-68
2023/08/22 13:29:53;;;;;;;1.48;1.10;;;26.40;80.90;;;;;;5110112;28;20572;-68
2023/08/22 13:32:20;;;;;;;1.00;1.00;;;26.50;81.00;;;;;;5109425;28;20227;-68
2023/08/22 13:34:47;;;;;;;0.95;0.95;;;26.50;81.00;;;;;;5110018;27;20215;-67
2023/08/22 13:37:14;;;;;;;0.90;0.90;;;26.50;80.30;;;;;;5078831;28;20200;-68
2023/08/22 13:39:41;;;;;;;1.10;1.00;;;26.50;80.60;;;;;;5106746;28;20199;-68
2023/08/22 13:42:10;;;;;;;1.30;1.20;;;26.40;79.90;;;;;;5108491;27;20267;-68
2023/08/22 13:44:37;;;;;;;2.80;1.33;;;26.40;79.60;;;;;;5101785;28;20188;-68
2023/08/22 13:47:05;;;;;;;0.95;0.90;;;26.30;78.70;;;;;;5094349;27;20283;-68
2023/08/22 13:49:35;;;;;;;0.73;0.73;;;26.20;78.90;;;;;;5098317;27;20196;-68
2023/08/22 13:52:02;;;;;;;1.10;1.00;;;26.10;79.10;;;;;;5099568;28;20192;-68
2023/08/22 13:54:30;;;;;;;0.80;0.80;;;26.20;79.50;;;;;;5103577;27;20196;-68
2023/08/22 13:56:57;;;;;;;0.90;0.90;;;26.20;80.60;;;;;;5108397;27;20189;-68
2023/08/22 13:59:26;;;;;;;0.93;0.82;;;26.20;80.40;;;;;;5102228;28;20291;-68
2023/08/22 14:01:53;;;;;;;0.80;0.80;;;26.20;80.80;;;;;;5101411;27;20261;-68
2023/08/22 14:04:20;;;;;;;0.70;0.70;;;26.20;81.40;;;;;;5112024;27;20219;-68
2023/08/22 14:06:48;;;;;;;0.70;0.70;;;26.20;81.60;;;;;;5110664;28;20275;-68
2023/08/22 14:09:19;;;;;;;0.80;0.80;;;26.30;81.90;;;;;;5106357;27;20406;-68
2023/08/22 14:11:46;;;;;;;1.58;0.93;;;26.30;82.20;;;;;;5083135;28;20664;-69
2023/08/22 14:14:15;;;;;;;2.30;0.80;;;26.30;82.00;;;;;;5097567;28;20238;-68
2023/08/22 14:16:43;;;;;;;0.95;0.77;;;26.30;82.40;;;;;;5101852;27;20268;-68
2023/08/22 14:19:12;;;;;;;0.98;0.75;;;26.30;82.30;;;;;;5087191;28;20193;-68
2023/08/22 14:21:39;;;;;;;0.73;0.68;;;26.30;82.50;;;;;;5103752;28;20211;-68
2023/08/22 14:24:06;;;;;;;0.70;0.70;;;26.30;82.80;;;;;;5099193;27;20661;-68
2023/08/22 14:26:33;;;;;;;0.82;0.70;;;26.20;82.90;;;;;;5092423;28;20220;-68
2023/08/22 14:29:03;;;;;;;2.92;0.90;;;26.30;83.10;;;;;;5089069;28;20598;-68
2023/08/22 14:31:32;;;;;;;0.95;0.60;;;26.20;83.10;;;;;;5098242;28;20193;-68
2023/08/22 14:34:03;;;;;;;0.85;0.82;;;26.20;83.10;;;;;;5100500;28;20192;-68
2023/08/22 14:36:30;;;;;;;0.75;0.75;;;26.20;83.60;;;;;;5085048;28;20502;-68
2023/08/22 14:38:57;;;;;;;1.70;0.80;;;26.20;83.30;;;;;;5089090;28;20257;-68
2023/08/22 14:41:24;;;;;;;0.75;0.70;;;26.10;83.50;;;;;;5082130;28;20272;-69
2023/08/22 14:43:52;;;;;;;0.70;0.70;;;26.10;83.40;;;;;;5110169;28;20678;-68
2023/08/22 14:46:20;;;;;;;0.80;0.80;;;26.00;83.50;;;;;;5097391;28;20317;-69
2023/08/22 14:48:47;;;;;;;1.23;0.70;;;26.00;83.70;;;;;;5100047;28;20189;-68
2023/08/22 14:51:15;;;;;;;0.90;0.90;;;26.00;83.70;;;;;;5081595;28;20254;-68
2023/08/22 14:53:42;;;;;;;0.82;0.80;;;26.10;83.80;;;;;;5104923;28;20279;-68
2023/08/22 14:56:09;;;;;;;1.05;0.90;;;26.10;83.80;;;;;;5094439;28;20294;-69
2023/08/22 14:58:40;;;;;;;0.82;0.82;;;26.10;83.80;;;;;;5106166;28;20208;-68
2023/08/22 15:01:08;;;;;;;1.30;0.80;;;26.10;83.90;;;;;;5088319;28;20304;-69
2023/08/22 15:03:36;;;;;;;0.90;0.70;;;26.00;84.10;;;;;;5085896;28;20641;-68
2023/08/22 15:06:03;;;;;;;0.77;0.77;;;26.00;84.30;;;;;;5095982;28;20279;-68
2023/08/22 15:08:31;;;;;;;0.90;0.90;;;26.00;84.50;;;;;;5099804;28;20196;-68
2023/08/22 15:10:59;;;;;;;1.00;0.90;;;26.00;84.80;;;;;;5109377;28;20227;-68
2023/08/22 15:13:28;;;;;;;1.25;0.85;;;25.90;84.80;;;;;;5094427;28;20220;-68
2023/08/22 15:15:56;;;;;;;0.70;0.70;;;26.00;85.00;;;;;;5103367;28;20188;-68
2023/08/22 15:18:24;;;;;;;0.73;0.73;;;25.90;84.90;;;;;;5102540;28;20716;-67
2023/08/22 15:20:52;;;;;;;1.73;0.90;;;25.90;84.80;;;;;;5099146;28;20192;-69
2023/08/22 15:23:20;;;;;;;1.02;0.82;;;25.90;84.90;;;;;;5089887;28;20839;-68
2023/08/22 15:25:50;;;;;;;1.52;1.05;;;25.80;85.20;;;;;;5081877;28;20289;-68
2023/08/22 15:28:20;;;;;;;1.23;1.00;;;25.80;85.40;;;;;;5087248;28;20196;-68
2023/08/22 15:30:47;;;;;;;2.45;1.25;;;25.80;85.80;;;;;;5108230;28;20249;-68
2023/08/22 15:33:14;;;;;;;0.60;0.60;;;25.80;86.20;;;;;;5104130;27;20187;-68
2023/08/22 15:35:45;;;;;;;0.70;0.70;;;25.80;86.40;;;;;;5077191;28;20209;-68
2023/08/22 15:38:13;;;;;;;0.70;0.70;;;25.80;86.70;;;;;;5108054;28;20651;-69
2023/08/22 15:40:47;;;;;;;0.88;0.88;;;25.80;86.90;;;;;;5107539;28;20462;-69
2023/08/22 15:43:16;;;;;;;0.90;0.70;;;25.80;87.40;;;;;;5102284;28;20204;-68
2023/08/22 15:45:43;;;;;;;0.80;0.70;;;25.70;87.70;;;;;;5105932;28;20189;-69
2023/08/22 15:48:10;;;;;;;0.93;0.90;;;25.70;87.80;;;;;;5103831;27;20196;-69
2023/08/22 15:50:38;;;;;;;1.38;0.80;;;25.70;88.10;;;;;;5109497;28;20202;-69
2023/08/22 15:53:05;;;;;;;0.70;0.70;;;25.60;88.30;;;;;;5106847;27;20196;-68
2023/08/22 15:55:32;;;;;;;1.40;0.98;;;25.60;88.60;;;;;;5107704;27;20551;-69
2023/08/22 15:58:00;;;;;;;0.82;0.82;;;25.60;88.80;;;;;;5101406;28;20201;-69
2023/08/22 16:00:29;;;;;;;1.83;0.88;;;25.60;89.00;;;;;;5084232;27;20210;-68
2023/08/22 16:02:56;;;;;;;0.85;0.85;;;25.60;89.20;;;;;;5110322;27;20203;-69
2023/08/22 16:05:23;;;;;;;0.80;0.80;;;25.60;89.80;;;;;;5099418;28;20195;-69
2023/08/22 16:07:51;;;;;;;0.65;0.65;;;25.60;89.30;;;;;;5106916;27;20204;-69
2023/08/22 16:10:21;;;;;;;0.70;0.70;;;25.60;89.50;;;;;;5094455;28;20196;-69
2023/08/22 16:12:49;;;;;;;0.85;0.85;;;25.60;89.70;;;;;;5105928;28;20192;-69
2023/08/22 16:15:16;;;;;;;1.27;1.08;;;25.50;89.60;;;;;;5104839;27;20650;-70
2023/08/22 16:17:45;;;;;;;0.73;0.70;;;25.60;90.00;;;;;;5096251;28;20590;-70
2023/08/22 16:20:12;;;;;;;0.70;0.70;;;25.50;90.00;;;;;;5104315;28;20220;-70
2023/08/22 16:22:40;;;;;;;0.63;0.63;;;25.50;90.00;;;;;;5095512;27;20261;-70
2023/08/22 16:25:07;;;;;;;0.68;0.68;;;25.50;90.20;;;;;;5100236;27;20192;-70
2023/08/22 16:27:34;;;;;;;0.80;0.80;;;25.40;90.30;;;;;;5079469;28;20659;-70
2023/08/22 16:30:02;;;;;;;0.80;0.57;;;25.40;90.40;;;;;;5098339;27;20196;-70
2023/08/22 16:32:30;;;;;;;0.60;0.60;;;25.40;90.60;;;;;;5110390;27;20268;-69
2023/08/22 16:34:58;;;;;;;0.60;0.60;;;25.40;91.10;;;;;;5089823;28;20742;-70
2023/08/22 16:37:25;;;;;;;0.85;0.85;;;25.40;90.90;;;;;;5089694;27;20196;-69
2023/08/22 16:39:52;;;;;;;0.57;0.57;;;25.40;91.10;;;;;;5113357;27;20214;-68
2023/08/22 16:42:21;;;;;;;0.60;0.60;;;25.40;91.40;;;;;;5102298;28;20276;-69
2023/08/22 16:44:49;;;;;;;0.70;0.70;;;25.40;91.80;;;;;;5090120;27;20264;-70
2023/08/22 16:47:16;;;;;;;0.60;0.60;;;25.40;92.10;;;;;;5112930;27;20199;-70
2023/08/22 16:49:43;;;;;;;0.88;0.75;;;25.30;92.40;;;;;;5100016;27;20818;-68
2023/08/22 16:52:12;;;;;;;0.73;0.68;;;25.40;92.70;;;;;;5099022;27;20188;-68
2023/08/22 16:54:39;;;;;;;0.60;0.60;;;25.40;93.00;;;;;;5090682;28;20196;-68
2023/08/22 16:57:07;;;;;;;0.80;0.80;;;25.40;93.20;;;;;;5104423;28;20191;-68
2023/08/22 16:59:35;;;;;;;1.08;0.70;;;25.40;93.40;;;;;;5100161;27;20199;-69
2023/08/22 17:02:03;;;;;;;0.70;0.70;;;25.40;93.50;;;;;;5105871;27;20196;-70
2023/08/22 17:04:30;;;;;;;0.90;0.90;;;25.40;93.70;;;;;;5117745;27;20261;-70
2023/08/22 17:06:57;;;;;;;0.70;0.70;;;25.40;93.80;;;;;;5099940;27;20191;-70
2023/08/22 17:09:26;;;;;;;1.52;0.95;;;25.40;94.00;;;;;;5106667;27;20224;-70
2023/08/22 17:11:53;;;;;;;1.05;0.80;;;25.30;94.10;;;;;;5105109;28;20199;-69
2023/08/22 17:14:20;;;;;;;0.85;0.80;;;25.20;94.30;;;;;;5084683;27;20200;-68
2023/08/22 17:16:47;;;;;;;0.70;0.70;;;25.20;94.40;;;;;;5099766;27;20191;-68
2023/08/22 17:19:23;;;;;;;0.70;0.70;;;25.20;94.60;;;;;;5108647;27;20604;-68
2023/08/22 17:21:50;;;;;;;0.77;0.77;;;25.20;94.90;;;;;;5106759;28;20183;-68
2023/08/22 17:24:17;;;;;;;1.20;0.70;;;25.20;95.00;;;;;;5101465;27;20541;-68
2023/08/22 17:26:49;;;;;;;1.45;0.90;;;25.20;95.10;;;;;;5105832;28;20710;-69
2023/08/22 17:29:16;;;;;;;0.82;0.82;;;25.20;95.20;;;;;;5087955;28;20655;-68
2023/08/22 17:31:43;;;;;;;0.70;0.70;;;25.10;95.30;;;;;;5098833;27;20199;-69
2023/08/22 17:34:10;;;;;;;0.80;0.80;;;25.10;95.40;;;;;;5106889;27;20184;-68
2023/08/22 17:36:48;;;;;;;0.98;0.90;;;25.10;95.70;;;;;;5084031;28;20677;-69
2023/08/22 17:39:16;;;;;;;1.25;0.93;;;25.10;95.80;;;;;;5098130;27;20192;-68
2023/08/22 17:41:43;;;;;;;0.88;0.80;;;25.10;95.90;;;;;;5109683;27;20794;-68
2023/08/22 17:44:13;;;;;;;0.77;0.70;;;25.10;96.00;;;;;;5108006;28;20590;-68
2023/08/22 17:46:40;;;;;;;0.73;0.70;;;25.00;96.20;;;;;;5102380;27;20275;-69
2023/08/22 17:49:09;;;;;;;0.93;0.93;;;25.00;96.30;;;;;;5106675;27;20199;-69
2023/08/22 17:51:36;;;;;;;0.60;0.60;;;25.00;96.50;;;;;;5103008;28;20280;-69
2023/08/22 17:54:03;;;;;;;0.80;0.80;;;25.00;96.70;;;;;;5101105;28;20189;-68
2023/08/22 17:56:30;;;;;;;0.98;0.93;;;25.00;96.80;;;;;;5103412;27;20184;-69
2023/08/22 17:58:57;;;;;;;0.70;0.70;;;25.00;96.90;;;;;;5106426;27;20223;-68
2023/08/22 18:01:26;;;;;;;1.55;0.90;;;24.90;97.00;;;;;;5095398;28;20204;-70
2023/08/22 18:03:53;;;;;;;1.35;0.90;;;24.80;97.00;;;;;;5086722;28;20463;-67
2023/08/22 18:06:20;;;;;;;2.13;1.05;;;24.70;97.10;;;;;;5082161;28;20266;-68
2023/08/22 18:08:47;;;;;;;2.67;1.20;;;24.60;97.20;;;;;;5098153;28;20199;-67
2023/08/22 18:11:14;;;;;;;1.45;1.33;;;24.50;97.40;;;;;;5101664;27;20597;-67
2023/08/22 18:13:41;;;;;;;2.72;1.17;;;24.30;97.50;;;;;;5096837;28;20294;-68
2023/08/22 18:16:11;;;;;;;2.85;1.20;;;24.20;97.70;;;;;;5093966;28;20193;-68
2023/08/22 18:18:40;;;;;;;1.92;1.10;;;24.10;97.90;;;;;;5091453;27;20201;-69
2023/08/22 18:21:09;;;;;;;1.95;1.05;;;24.00;98.00;;;;;;5107605;28;20555;-69
2023/08/22 18:23:37;;;;;;;1.25;1.00;;;24.00;98.20;;;;;;5099264;28;20327;-68
2023/08/22 18:26:05;;;;;;;1.70;1.05;;;24.00;98.30;;;;;;5107401;28;20192;-69
2023/08/22 18:28:33;;;;;;;1.20;1.02;;;24.00;98.40;;;;;;5100159;28;20220;-69
2023/08/22 18:31:02;;;;;;;2.38;1.00;;;23.90;98.50;;;;;;5098886;28;20252;-69
2023/08/22 18:33:29;;;;;;;1.60;1.00;;;23.90;98.60;;;;;;5099458;28;20308;-69
2023/08/22 18:35:58;;;;;;;0.82;0.80;;;23.80;98.70;;;;;;5105788;28;20200;-69
2023/08/22 18:38:25;;;;;;;3.10;1.40;;;23.80;98.90;;;;;;5098910;28;20252;-69
2023/08/22 18:40:53;;;;;;;1.65;0.90;;;23.70;99.00;;;;;;5103383;28;20219;-69
2023/08/22 18:43:20;;;;;;;1.75;0.95;;;23.70;99.10;;;;;;5079751;28;22335;-68
2023/08/22 18:45:47;;;;;;;0.80;0.80;;;23.70;99.20;;;;;;5109989;28;20262;-68
2023/08/22 18:48:15;;;;;;;1.73;0.95;;;23.70;99.30;;;;;;5091268;28;20189;-67
2023/08/22 18:50:42;;;;;;;1.92;1.10;;;23.70;99.40;;;;;;5105122;28;20199;-68
2023/08/22 18:53:10;;;;;;;1.15;1.08;;;23.70;99.50;;;;;;5096955;28;20195;-68
2023/08/22 18:55:37;;;;;;;1.08;1.02;;;23.70;99.60;;;;;;5103245;28;20212;-68
2023/08/22 18:58:07;;;;;;;0.82;0.57;;;23.70;99.70;;;;;;5105153;28;20191;-68
2023/08/22 19:00:34;;;;;;;1.27;0.90;;;23.70;99.80;;;;;;5107287;28;20215;-68
2023/08/22 19:03:01;;;;;;;1.25;1.10;;;23.60;99.90;;;;;;5105926;28;20203;-67
2023/08/22 19:05:28;;;;;;;1.38;1.10;;;23.60;99.90;;;;;;5105867;27;20192;-68
2023/08/22 19:07:55;;;;;;;2.65;1.20;;;23.50;99.90;;;;;;5103475;27;20188;-68
2023/08/22 19:10:23;;;;;;;1.17;1.17;;;23.40;99.90;;;;;;5086118;28;20199;-68
2023/08/22 19:12:51;;;;;;;1.27;1.00;;;23.40;99.90;;;;;;5108670;27;20735;-68
2023/08/22 19:15:18;;;;;;;2.20;1.42;;;23.30;99.90;;;;;;5110989;27;20275;-68
2023/08/22 19:17:45;;;;;;;1.45;0.98;;;23.30;99.90;;;;;;5090745;28;20193;-68
2023/08/22 19:20:13;;;;;;;1.20;1.10;;;23.20;99.90;;;;;;5104344;27;20666;-68
2023/08/22 19:22:40;;;;;;;2.40;1.20;;;23.20;99.90;;;;;;5094252;28;20245;-68
2023/08/22 19:25:08;;;;;;;2.97;1.20;;;23.20;99.90;;;;;;5107461;28;20207;-67
2023/08/22 19:27:41;;;;;;;1.35;1.20;;;23.20;99.90;;;;;;5101995;27;20236;-68
2023/08/22 19:30:10;;;;;;;1.27;0.93;;;23.20;99.90;;;;;;5111897;28;20687;-68
2023/08/22 19:32:37;;;;;;;1.10;1.00;;;23.50;99.90;;;;;;5101221;28;20197;-69
2023/08/22 19:35:05;;;;;;;1.15;1.05;;;23.20;99.90;;;;;;5100234;27;20727;-68
2023/08/22 19:37:32;;;;;;;1.00;0.90;;;23.20;99.90;;;;;;5098074;28;20239;-68
2023/08/22 19:40:01;;;;;;;1.00;1.00;;;23.10;99.90;;;;;;5104697;28;20193;-67
2023/08/22 19:42:28;;;;;;;1.23;0.95;;;23.10;99.90;;;;;;5110267;27;20273;-68
2023/08/22 19:44:57;;;;;;;0.98;0.98;;;23.10;99.90;;;;;;5099689;28;20208;-67
2023/08/22 19:47:24;;;;;;;1.52;1.00;;;23.10;99.90;;;;;;5090815;28;20287;-67
2023/08/22 19:49:52;;;;;;;1.25;0.90;;;23.00;99.90;;;;;;5105899;27;20674;-68
2023/08/22 19:52:22;;;;;;;0.90;0.90;;;23.00;99.90;;;;;;5102449;28;20184;-68
2023/08/22 19:54:49;;;;;;;0.90;0.90;;;23.00;99.90;;;;;;5100651;28;20597;-67
2023/08/22 19:57:16;;;;;;;1.15;1.15;;;23.00;99.90;;;;;;5103337;27;20521;-69
2023/08/22 19:59:43;;;;;;;1.52;1.42;;;22.90;99.90;;;;;;5103870;28;20203;-69
2023/08/22 20:02:12;;;;;;;1.02;1.02;;;22.90;99.90;;;;;;5087102;28;20650;-69
2023/08/22 20:04:39;;;;;;;1.25;1.15;;;22.90;99.90;;;;;;5100887;27;20204;-69
2023/08/22 20:07:06;;;;;;;1.50;1.40;;;22.90;99.90;;;;;;5111115;27;20198;-69
2023/08/22 20:09:33;;;;;;;3.10;1.33;;;22.90;99.90;;;;;;5101497;28;20567;-69
2023/08/22 20:12:00;;;;;;;1.88;1.42;;;22.80;99.90;;;;;;5102578;27;20531;-69
2023/08/22 20:14:27;;;;;;;1.50;1.40;;;22.80;99.90;;;;;;5097582;28;20679;-69
2023/08/22 20:16:54;;;;;;;1.35;1.25;;;22.80;99.90;;;;;;5090949;28;20253;-67
2023/08/22 20:19:23;;;;;;;2.88;1.50;;;22.80;99.90;;;;;;5094827;27;20188;-68
2023/08/22 20:21:50;;;;;;;1.20;1.08;;;22.70;99.90;;;;;;5110641;28;20199;-68
2023/08/22 20:24:17;;;;;;;1.52;1.35;;;22.70;99.90;;;;;;5078385;28;20216;-69
2023/08/22 20:26:44;;;;;;;1.48;1.20;;;22.70;99.90;;;;;;5108557;27;20191;-68
2023/08/22 20:29:11;;;;;;;1.42;1.30;;;22.70;99.90;;;;;;5095231;28;20332;-68
2023/08/22 20:31:38;;;;;;;1.33;1.17;;;22.70;99.90;;;;;;5099131;28;20295;-67
2023/08/22 20:34:06;;;;;;;1.35;1.13;;;22.70;99.90;;;;;;5105214;27;20190;-68
2023/08/22 20:36:34;;;;;;;1.25;1.20;;;22.60;99.90;;;;;;5100818;28;20196;-68
2023/08/22 20:39:03;;;;;;;1.30;1.20;;;22.60;99.90;;;;;;5102462;28;20192;-67
2023/08/22 20:41:30;;;;;;;1.33;1.13;;;22.60;99.90;;;;;;5111912;27;20261;-68
2023/08/22 20:43:57;;;;;;;1.50;1.20;;;22.60;99.90;;;;;;5103691;28;20254;-68
2023/08/22 20:46:25;;;;;;;2.88;1.60;;;22.50;99.90;;;;;;5095255;28;20195;-67
2023/08/22 20:48:52;;;;;;;3.53;1.63;;;22.50;99.90;;;;;;5108845;27;20245;-67
2023/08/22 20:51:19;;;;;;;1.75;1.38;;;22.50;99.90;;;;;;5107010;28;20196;-68
2023/08/22 20:53:47;;;;;;;1.10;1.10;;;22.50;99.90;;;;;;5100509;28;20199;-68
2023/08/22 20:56:14;;;;;;;0.90;0.90;;;22.50;99.90;;;;;;5105137;27;20196;-68
2023/08/22 20:58:41;;;;;;;1.48;1.20;;;22.60;99.90;;;;;;5089033;28;20207;-67
2023/08/22 21:01:08;;;;;;;2.13;1.48;;;22.60;99.90;;;;;;5098468;28;20188;-66
2023/08/22 21:03:35;;;;;;;1.52;0.90;;;22.60;99.90;;;;;;5101076;27;20753;-67
2023/08/22 21:06:02;;;;;;;1.65;1.50;;;22.60;99.90;;;;;;5111908;28;20249;-66
2023/08/22 21:08:29;;;;;;;1.50;1.40;;;22.50;99.90;;;;;;5110681;28;20192;-67
2023/08/22 21:10:58;;;;;;;1.60;1.50;;;22.60;99.90;;;;;;5097134;27;20664;-67
2023/08/22 21:13:25;;;;;;;1.52;1.40;;;22.50;99.90;;;;;;5105451;28;20204;-67
2023/08/22 21:15:53;;;;;;;1.35;1.25;;;22.50;99.90;;;;;;5094215;28;20206;-67
2023/08/22 21:18:21;;;;;;;1.45;1.30;;;22.50;99.90;;;;;;5094249;27;20191;-67
2023/08/22 21:20:52;;;;;;;1.63;1.50;;;22.40;99.90;;;;;;5079849;28;20192;-67
2023/08/22 21:23:22;;;;;;;1.60;1.40;;;22.40;99.90;;;;;;5098146;28;20606;-69
2023/08/22 21:25:49;;;;;;;2.75;1.65;;;22.40;99.90;;;;;;5081043;28;20212;-68
2023/08/22 21:28:18;;;;;;;1.70;1.60;;;22.40;99.90;;;;;;5104562;28;20227;-68
2023/08/22 21:30:46;;;;;;;2.85;1.85;;;22.40;99.90;;;;;;5107689;28;20188;-68
2023/08/22 21:33:16;;;;;;;2.05;1.63;;;22.30;99.90;;;;;;5103133;27;20244;-67
2023/08/22 21:35:44;;;;;;;1.70;1.60;;;22.30;99.90;;;;;;5102891;28;20585;-68
2023/08/22 21:38:11;;;;;;;1.70;1.60;;;22.20;99.90;;;;;;5084465;28;20204;-67
2023/08/22 21:40:45;;;;;;;2.45;1.63;;;22.20;99.90;;;;;;5096154;27;20184;-68
2023/08/22 21:43:17;;;;;;;3.83;1.98;;;22.10;99.90;;;;;;5101897;27;20683;-68
2023/08/22 21:45:44;;;;;;;3.75;1.80;;;22.10;99.90;;;;;;5110691;28;20559;-68
2023/08/22 21:48:11;;;;;;;3.40;2.13;;;22.10;99.90;;;;;;5103516;27;20304;-68
2023/08/22 21:50:38;;;;;;;2.15;1.95;;;22.10;99.90;;;;;;5091900;28;20195;-68
2023/08/22 21:53:07;;;;;;;2.78;1.90;;;22.10;99.90;;;;;;5100296;28;20196;-68
2023/08/22 21:55:34;;;;;;;2.47;1.67;;;22.20;99.90;;;;;;5106702;27;20191;-67
2023/08/22 21:58:04;;;;;;;1.83;1.60;;;22.10;99.90;;;;;;5082511;28;20611;-68
2023/08/22 22:00:33;;;;;;;1.65;1.55;;;22.20;99.90;;;;;;5104796;28;20196;-67
2023/08/22 22:03:00;;;;;;;1.83;1.73;;;22.20;99.90;;;;;;5107780;27;20226;-68
2023/08/22 22:05:27;;;;;;;1.63;1.38;;;22.20;99.90;;;;;;5109212;27;20216;-67
2023/08/22 22:07:54;;;;;;;2.08;1.73;;;22.20;99.90;;;;;;5101715;28;20203;-67
2023/08/22 22:10:24;;;;;;;4.05;1.42;;;22.20;99.90;;;;;;5101336;28;20274;-67
2023/08/22 22:12:51;;;;;;;1.52;1.42;;;22.20;99.90;;;;;;5091541;28;20196;-67
2023/08/22 22:15:24;;;;;;;1.90;1.60;;;22.10;99.90;;;;;;5098055;28;20192;-67
2023/08/22 22:17:53;;;;;;;2.47;2.17;;;22.20;99.90;;;;;;5104202;28;20273;-68
2023/08/22 22:20:20;;;;;;;2.35;1.60;;;22.10;99.90;;;;;;5099143;28;20212;-68
2023/08/22 22:22:48;;;;;;;2.58;1.80;;;22.10;99.90;;;;;;5105161;28;20192;-68
2023/08/22 22:25:15;;;;;;;2.33;1.50;;;22.00;99.90;;;;;;5099331;28;20208;-68
2023/08/22 22:27:43;;;;;;;2.28;1.55;;;22.00;99.90;;;;;;5091561;28;20291;-68
2023/08/22 22:30:13;;;;;;;1.63;1.50;;;22.00;99.90;;;;;;5094064;28;20189;-67
2023/08/22 22:32:40;;;;;;;5.47;1.75;;;21.90;99.90;;;;;;5098672;28;20271;-67
2023/08/22 22:35:09;;;;;;;2.03;1.77;;;21.90;99.90;;;;;;5094689;28;20255;-68
2023/08/22 22:37:37;;;;;;;1.95;1.60;;;21.90;99.90;;;;;;5096575;28;20192;-67
2023/08/22 22:40:05;;;;;;;7.28;1.90;;;21.90;99.90;;;;;;5093974;28;20200;-67
2023/08/22 22:42:32;;;;;;;3.97;1.83;;;21.90;99.90;;;;;;5096821;28;20224;-67
2023/08/22 22:45:01;;;;;;;2.35;1.50;;;21.90;99.90;;;;;;5093907;28;20295;-67
2023/08/22 22:47:28;;;;;;;1.60;1.50;;;21.80;99.90;;;;;;5094267;28;20231;-67
2023/08/22 22:49:55;;;;;;;4.25;1.50;;;21.90;99.90;;;;;;5092503;28;20424;-67
2023/08/22 22:52:23;;;;;;;3.85;1.52;;;21.90;99.90;;;;;;5098446;28;20191;-67
2023/08/22 22:54:50;;;;;;;3.20;1.55;;;21.90;99.90;;;;;;5099217;28;20634;-67
2023/08/22 22:57:17;;;;;;;3.30;2.00;;;21.90;99.90;;;;;;5080724;28;20675;-66
2023/08/22 22:59:44;;;;;;;2.30;2.10;;;21.90;99.60;;;;;;5085594;28;20200;-66
2023/08/22 23:02:11;;;;;;;3.25;2.25;;;21.80;99.30;;;;;;5098831;28;20202;-66
2023/08/22 23:04:38;;;;;;;5.38;2.35;;;21.70;98.90;;;;;;5104470;28;20206;-66
2023/08/22 23:07:05;;;;;;;1.83;1.60;;;21.70;98.90;;;;;;5099447;28;20226;-67
2023/08/22 23:09:36;;;;;;;2.45;2.20;;;21.70;98.90;;;;;;5102635;28;20286;-67
2023/08/22 23:12:04;;;;;;;2.70;1.65;;;21.60;98.90;;;;;;5098946;28;20225;-67
2023/08/22 23:14:31;;;;;;;2.08;1.80;;;21.60;98.90;;;;;;5087383;28;20203;-67
2023/08/22 23:17:01;;;;;;;2.72;1.65;;;21.60;99.00;;;;;;5099141;28;20224;-68
2023/08/22 23:19:28;;;;;;;2.35;1.90;;;21.60;99.00;;;;;;5104659;28;20273;-67
2023/08/22 23:21:55;;;;;;;3.03;1.90;;;21.60;99.30;;;;;;5091169;28;20214;-67
2023/08/22 23:24:24;;;;;;;3.75;2.10;;;21.60;98.90;;;;;;5101253;28;20391;-68
2023/08/22 23:26:52;;;;;;;3.72;1.60;;;21.50;98.90;;;;;;5092598;28;20200;-67
2023/08/22 23:29:19;;;;;;;3.22;1.63;;;21.60;98.90;;;;;;5094365;28;20189;-68
2023/08/22 23:31:46;;;;;;;2.97;1.70;;;21.60;98.90;;;;;;5093297;28;20196;-67
2023/08/22 23:34:13;;;;;;;2.67;1.98;;;21.60;98.80;;;;;;5093022;28;20655;-68